createdAt,value
2022-08-17T00:00:43.725Z,21.80
2022-08-17T00:03:15.556Z,21.80
2022-08-17T00:05:47.946Z,21.80
2022-08-17T00:08:19.623Z,21.80
2022-08-17T00:10:48.175Z,21.70
2022-08-17T00:13:23.912Z,21.70
2022-08-17T00:15:52.721Z,21.70
2022-08-17T00:19:04.164Z,21.70
2022-08-17T00:21:11.926Z,21.70
2022-08-17T00:23:47.834Z,21.70
2022-08-17T00:26:44.598Z,21.60
2022-08-17T00:29:07.313Z,21.80
2022-08-17T00:31:36.702Z,21.70
2022-08-17T00:34:08.833Z,21.80
2022-08-17T00:36:36.920Z,21.70
2022-08-17T00:39:05.662Z,21.60
2022-08-17T00:41:35.807Z,21.70
2022-08-17T00:44:06.158Z,21.70
2022-08-17T00:47:26.226Z,21.80
2022-08-17T00:50:23.114Z,21.80
2022-08-17T00:53:02.307Z,21.80
2022-08-17T00:58:42.765Z,21.60
2022-08-17T01:01:21.860Z,21.70
2022-08-17T01:07:13.145Z,21.50
2022-08-17T01:09:42.696Z,21.60
2022-08-17T01:12:12.185Z,21.50
2022-08-17T01:14:41.135Z,21.50
2022-08-17T01:17:10.538Z,21.60
2022-08-17T01:19:44.768Z,21.70
2022-08-17T01:22:23.488Z,21.70
2022-08-17T01:24:57.152Z,21.70
2022-08-17T01:27:26.835Z,21.70
2022-08-17T01:29:58.768Z,21.80
2022-08-17T01:32:27.591Z,21.70
2022-08-17T01:34:56.534Z,21.60
2022-08-17T01:37:32.385Z,21.50
2022-08-17T01:40:06.856Z,21.50
2022-08-17T01:42:40.569Z,21.50
2022-08-17T01:45:16.857Z,21.40
2022-08-17T01:47:45.752Z,21.20
2022-08-17T01:50:18.215Z,21.40
2022-08-17T01:52:50.370Z,21.20
2022-08-17T01:55:27.189Z,21.10
2022-08-17T01:57:58.186Z,21.10
2022-08-17T02:00:28.263Z,21.00
2022-08-17T02:03:17.271Z,20.90
2022-08-17T02:05:48.568Z,20.70
2022-08-17T02:08:20.417Z,20.50
2022-08-17T02:11:00.904Z,20.50
2022-08-17T02:13:29.934Z,20.30
2022-08-17T02:15:58.890Z,20.30
2022-08-17T02:18:28.151Z,20.20
2022-08-17T02:20:59.371Z,20.10
2022-08-17T02:23:33.197Z,20.10
2022-08-17T02:26:05.883Z,20.20
2022-08-17T02:28:34.263Z,20.00
2022-08-17T02:31:06.503Z,20.10
2022-08-17T02:33:42.246Z,20.00
2022-08-17T02:36:13.890Z,19.90
2022-08-17T02:38:44.793Z,20.00
2022-08-17T02:41:13.074Z,19.90
2022-08-17T02:43:41.177Z,19.90
2022-08-17T02:46:09.962Z,19.80
2022-08-17T02:48:38.081Z,19.80
2022-08-17T02:51:06.214Z,19.80
2022-08-17T02:53:36.191Z,20.00
2022-08-17T02:56:06.164Z,19.80
2022-08-17T02:58:35.396Z,19.80
2022-08-17T03:01:04.842Z,19.90
2022-08-17T03:03:33.140Z,20.00
2022-08-17T03:06:01.804Z,19.90
2022-08-17T03:08:30.273Z,20.00
2022-08-17T03:10:58.725Z,20.00
2022-08-17T03:13:28.332Z,19.90
2022-08-17T03:15:56.669Z,20.00
2022-08-17T03:18:26.367Z,20.10
2022-08-17T03:20:55.416Z,20.10
2022-08-17T03:23:25.521Z,20.00
2022-08-17T03:25:55.088Z,20.10
2022-08-17T03:28:24.807Z,20.20
2022-08-17T03:30:54.562Z,20.20
2022-08-17T03:33:23.257Z,20.20
2022-08-17T03:35:52.091Z,20.30
2022-08-17T03:38:20.510Z,20.40
2022-08-17T03:40:57.676Z,20.40
2022-08-17T03:43:28.618Z,20.50
2022-08-17T03:46:27.800Z,20.40
2022-08-17T03:49:15.116Z,20.40
2022-08-17T03:52:00.556Z,20.40
2022-08-17T03:54:46.130Z,20.40
2022-08-17T03:57:14.881Z,20.60
2022-08-17T03:59:43.155Z,20.40
2022-08-17T04:02:18.627Z,20.30
2022-08-17T04:04:46.974Z,20.30
2022-08-17T04:07:15.017Z,20.30
2022-08-17T04:09:43.690Z,20.30
2022-08-17T04:12:12.696Z,20.30
2022-08-17T04:14:53.029Z,20.40
2022-08-17T04:17:26.904Z,20.20
2022-08-17T04:19:58.120Z,20.20
2022-08-17T04:22:32.572Z,20.30
2022-08-17T04:25:17.002Z,20.00
2022-08-17T04:27:45.504Z,20.20
2022-08-17T04:30:14.482Z,20.20
2022-08-17T04:33:03.436Z,20.20
2022-08-17T04:35:36.907Z,20.20
2022-08-17T04:38:05.120Z,20.30
2022-08-17T04:40:50.619Z,20.40
2022-08-17T04:43:22.470Z,20.40
2022-08-17T04:45:55.873Z,20.40
2022-08-17T04:48:29.662Z,20.40
2022-08-17T04:51:07.019Z,20.40
2022-08-17T04:53:35.102Z,20.50
2022-08-17T04:56:03.296Z,20.50
2022-08-17T04:58:33.256Z,20.40
2022-08-17T05:01:01.771Z,20.40
2022-08-17T05:03:31.944Z,20.40
2022-08-17T05:06:00.397Z,20.30
2022-08-17T05:08:28.691Z,20.20
2022-08-17T05:10:56.793Z,20.30
2022-08-17T05:13:26.826Z,20.30
2022-08-17T05:15:57.897Z,20.30
2022-08-17T05:18:26.301Z,20.40
2022-08-17T05:20:56.722Z,20.40
2022-08-17T05:23:42.723Z,20.40
2022-08-17T05:26:21.978Z,20.30
2022-08-17T05:28:59.517Z,20.30
2022-08-17T05:31:29.830Z,20.40
2022-08-17T05:34:02.532Z,20.40
2022-08-17T05:36:38.096Z,20.30
2022-08-17T05:39:17.088Z,20.40
2022-08-17T05:41:47.702Z,20.40
2022-08-17T05:44:16.473Z,20.50
2022-08-17T05:46:50.030Z,20.50
2022-08-17T05:49:22.382Z,20.60
2022-08-17T05:52:18.740Z,20.60
2022-08-17T05:55:03.168Z,20.60
2022-08-17T05:57:53.822Z,20.60
2022-08-17T06:00:30.732Z,20.60
2022-08-17T06:03:20.355Z,20.60
2022-08-17T06:06:01.551Z,20.60
2022-08-17T06:08:39.713Z,20.60
2022-08-17T06:11:19.823Z,20.50
2022-08-17T06:14:30.610Z,20.60
2022-08-17T06:17:11.917Z,20.60
2022-08-17T06:19:45.099Z,20.60
2022-08-17T06:22:16.742Z,20.70
2022-08-17T06:24:50.219Z,20.70
2022-08-17T06:27:26.415Z,20.70
2022-08-17T06:30:02.826Z,20.80
2022-08-17T06:32:33.966Z,20.80
2022-08-17T06:35:11.075Z,20.80
2022-08-17T06:38:01.312Z,20.80
2022-08-17T06:41:06.125Z,20.80
2022-08-17T06:43:50.540Z,20.90
2022-08-17T06:46:25.754Z,20.90
2022-08-17T06:49:17.251Z,21.00
2022-08-17T06:51:58.196Z,21.00
2022-08-17T06:54:46.610Z,21.00
2022-08-17T06:57:22.486Z,21.00
2022-08-17T07:00:01.626Z,21.00
2022-08-17T07:02:52.645Z,21.10
2022-08-17T07:05:25.214Z,21.00
2022-08-17T07:08:08.089Z,21.10
2022-08-17T07:10:40.792Z,21.10
2022-08-17T07:13:31.767Z,21.00
2022-08-17T07:16:25.500Z,21.10
2022-08-17T07:19:33.571Z,21.30
2022-08-17T07:25:55.052Z,21.40
2022-08-17T07:29:02.482Z,21.50
2022-08-17T07:31:40.326Z,21.50
2022-08-17T07:34:23.390Z,21.50
2022-08-17T07:37:08.509Z,21.50
2022-08-17T07:40:15.487Z,21.50
2022-08-17T07:43:33.337Z,21.40
2022-08-17T07:46:37.632Z,21.40
2022-08-17T07:49:39.991Z,21.40
2022-08-17T07:52:51.998Z,21.50
2022-08-17T07:55:30.962Z,21.40
2022-08-17T07:58:23.687Z,21.50
2022-08-17T08:01:09.459Z,21.50
2022-08-17T08:03:53.027Z,21.50
2022-08-17T08:06:31.607Z,21.60
2022-08-17T08:09:01.129Z,21.60
2022-08-17T08:11:38.316Z,21.60
2022-08-17T08:14:29.584Z,21.70
2022-08-17T08:17:09.390Z,21.70
2022-08-17T08:19:40.792Z,21.90
2022-08-17T08:22:15.220Z,21.90
2022-08-17T08:25:03.691Z,21.80
2022-08-17T08:27:45.703Z,22.00
2022-08-17T08:30:16.773Z,21.90
2022-08-17T08:33:04.249Z,22.00
2022-08-17T08:35:34.571Z,21.90
2022-08-17T08:38:20.072Z,22.00
2022-08-17T08:41:02.512Z,21.90
2022-08-17T08:43:42.438Z,21.90
2022-08-17T08:46:25.151Z,21.80
2022-08-17T08:49:26.199Z,21.90
2022-08-17T08:52:04.253Z,22.00
2022-08-17T08:54:46.179Z,22.10
2022-08-17T08:57:26.685Z,22.10
2022-08-17T09:00:12.773Z,22.20
2022-08-17T09:02:56.470Z,22.30
2022-08-17T09:05:39.280Z,22.20
2022-08-17T09:08:17.346Z,22.10
2022-08-17T09:10:57.810Z,22.20
2022-08-17T09:13:34.662Z,22.20
2022-08-17T09:16:11.667Z,22.10
2022-08-17T09:19:00.337Z,22.10
2022-08-17T09:21:47.795Z,22.10
2022-08-17T09:24:25.305Z,22.10
2022-08-17T09:27:00.977Z,22.10
2022-08-17T09:29:35.157Z,22.10
2022-08-17T09:32:13.178Z,22.00
2022-08-17T09:34:49.301Z,22.00
2022-08-17T09:37:23.826Z,22.00
2022-08-17T09:40:00.547Z,21.90
2022-08-17T09:42:33.261Z,22.00
2022-08-17T09:45:15.466Z,21.90
2022-08-17T09:47:51.608Z,21.90
2022-08-17T09:50:55.496Z,21.80
2022-08-17T09:53:17.414Z,21.90
2022-08-17T09:56:14.283Z,21.90
2022-08-17T09:58:57.843Z,21.80
2022-08-17T10:01:36.857Z,21.80
2022-08-17T10:04:26.017Z,21.80
2022-08-17T10:07:06.170Z,21.80
2022-08-17T10:09:55.889Z,21.90
2022-08-17T10:12:36.847Z,21.80
2022-08-17T10:15:25.087Z,21.80
2022-08-17T10:18:31.990Z,21.70
2022-08-17T10:21:24.960Z,21.70
2022-08-17T10:24:17.857Z,21.70
2022-08-17T10:26:56.477Z,21.70
2022-08-17T10:29:32.694Z,21.70
2022-08-17T10:32:25.524Z,21.70
2022-08-17T10:35:25.629Z,21.70
2022-08-17T10:38:15.568Z,21.70
2022-08-17T10:40:49.581Z,21.50
2022-08-17T10:43:32.991Z,21.60
2022-08-17T10:46:30.051Z,21.80
2022-08-17T10:49:25.179Z,21.90
2022-08-17T10:51:55.090Z,22.00
2022-08-17T10:54:58.777Z,22.00
2022-08-17T10:57:40.089Z,22.10
2022-08-17T11:00:17.069Z,22.20
2022-08-17T11:02:51.853Z,22.20
2022-08-17T11:05:50.339Z,22.30
2022-08-17T11:08:36.560Z,22.40
2022-08-17T11:11:36.034Z,22.40
2022-08-17T11:14:18.867Z,22.50
2022-08-17T11:17:16.427Z,22.50
2022-08-17T11:20:10.601Z,22.60
2022-08-17T11:23:20.955Z,22.70
2022-08-17T11:25:53.718Z,22.80
2022-08-17T11:28:28.168Z,22.80
2022-08-17T11:31:03.790Z,22.80
2022-08-17T11:34:05.289Z,22.70
2022-08-17T11:37:08.902Z,22.70
2022-08-17T11:40:06.481Z,22.70
2022-08-17T11:42:55.412Z,22.80
2022-08-17T11:45:37.715Z,22.70
2022-08-17T11:48:32.534Z,22.70
2022-08-17T11:51:30.242Z,22.70
2022-08-17T11:54:31.269Z,22.70
2022-08-17T11:56:52.873Z,22.60
2022-08-17T11:59:59.875Z,22.50
2022-08-17T12:02:48.224Z,22.40
2022-08-17T12:05:35.370Z,22.40
2022-08-17T12:08:20.025Z,22.40
2022-08-17T12:11:03.267Z,22.30
2022-08-17T12:13:39.381Z,22.00
2022-08-17T12:16:10.238Z,22.10
2022-08-17T12:18:42.279Z,22.10
2022-08-17T12:21:40.982Z,22.10
2022-08-17T12:24:32.188Z,22.00
2022-08-17T12:27:10.661Z,22.00
2022-08-17T12:29:52.144Z,21.80
2022-08-17T12:32:33.881Z,21.80
2022-08-17T12:35:20.159Z,21.60
2022-08-17T12:37:56.331Z,21.80
2022-08-17T12:40:29.478Z,21.90
2022-08-17T12:43:20.587Z,21.80
2022-08-17T12:46:14.890Z,21.80
2022-08-17T12:49:08.466Z,21.70
2022-08-17T12:51:46.877Z,21.70
2022-08-17T13:10:09.451Z,21.70
2022-08-17T13:12:40.334Z,21.70
2022-08-17T13:15:43.261Z,21.70
2022-08-17T13:22:25.227Z,21.80
2022-08-17T13:25:19.617Z,21.90
2022-08-17T13:27:57.262Z,21.80
2022-08-17T13:31:17.846Z,21.80
2022-08-17T13:33:44.977Z,21.80
2022-08-17T13:36:50.787Z,21.90
2022-08-17T13:42:50.326Z,21.80
2022-08-17T13:45:50.712Z,22.00
2022-08-17T13:48:31.308Z,22.10
2022-08-17T13:51:33.257Z,22.20
2022-08-17T13:54:25.675Z,22.20
2022-08-17T13:57:09.156Z,22.20
2022-08-17T13:59:55.088Z,22.20
2022-08-17T14:02:27.740Z,22.20
2022-08-17T14:05:01.231Z,22.20
2022-08-17T14:07:36.321Z,22.10
2022-08-17T14:10:13.386Z,22.00
2022-08-17T14:12:43.834Z,21.90
2022-08-17T14:15:20.472Z,22.00
2022-08-17T14:17:50.921Z,22.20
2022-08-17T14:20:21.700Z,22.30
2022-08-17T14:23:03.063Z,22.30
2022-08-17T14:25:33.002Z,22.30
2022-08-17T14:28:06.964Z,22.40
2022-08-17T14:30:35.788Z,22.40
2022-08-17T14:33:05.817Z,22.50
2022-08-17T14:35:34.573Z,22.50
2022-08-17T14:38:03.102Z,22.40
2022-08-17T14:40:34.801Z,22.50
2022-08-17T14:43:03.361Z,22.30
2022-08-17T14:45:34.336Z,22.40
2022-08-17T14:48:07.873Z,22.50
2022-08-17T14:50:41.746Z,22.50
2022-08-17T14:53:20.359Z,22.50
2022-08-17T14:55:51.574Z,22.40
2022-08-17T14:58:19.990Z,22.50
2022-08-17T15:00:53.721Z,22.40
2022-08-17T15:03:22.886Z,22.30
2022-08-17T15:05:51.202Z,22.50
2022-08-17T15:08:19.644Z,22.50
2022-08-17T15:11:11.798Z,22.50
2022-08-17T15:17:16.823Z,22.70
2022-08-17T15:19:45.479Z,22.70
2022-08-17T15:22:55.209Z,22.70
2022-08-17T15:25:27.609Z,22.50
2022-08-17T15:27:57.557Z,22.50
2022-08-17T15:30:30.269Z,22.50
2022-08-17T15:32:59.165Z,22.50
2022-08-17T15:35:33.384Z,22.50
2022-08-17T15:38:11.327Z,22.30
2022-08-17T15:40:44.510Z,22.40
2022-08-17T15:43:24.946Z,22.40
2022-08-17T15:46:02.607Z,22.40
2022-08-17T15:48:42.226Z,22.30
2022-08-17T15:51:13.103Z,22.30
2022-08-17T15:53:42.953Z,22.20
2022-08-17T15:56:13.719Z,22.30
2022-08-17T15:58:44.725Z,22.20
2022-08-17T16:02:23.209Z,22.30
2022-08-17T16:04:30.443Z,22.20
2022-08-17T16:07:03.658Z,22.30
2022-08-17T16:09:32.397Z,22.30
2022-08-17T16:12:13.617Z,22.30
2022-08-17T16:14:43.608Z,22.30
2022-08-17T16:17:29.602Z,22.20
2022-08-17T16:20:02.884Z,22.20
2022-08-17T16:22:36.238Z,22.20
2022-08-17T16:25:09.212Z,22.10
2022-08-17T16:27:37.629Z,22.10
2022-08-17T16:30:14.941Z,22.10
2022-08-17T16:32:47.694Z,22.10
2022-08-17T16:35:17.465Z,22.10
2022-08-17T16:37:49.143Z,22.10
2022-08-17T16:40:18.257Z,22.10
2022-08-17T16:42:49.016Z,22.10
2022-08-17T16:45:20.226Z,22.20
2022-08-17T16:47:50.092Z,22.10
2022-08-17T16:50:23.415Z,22.10
2022-08-17T16:52:52.673Z,22.00
2022-08-17T16:55:23.075Z,22.00
2022-08-17T16:57:51.260Z,22.00
2022-08-17T17:00:21.189Z,21.90
2022-08-17T17:02:50.292Z,21.90
2022-08-17T17:05:33.769Z,21.80
2022-08-17T17:08:07.800Z,21.80
2022-08-17T17:10:40.525Z,21.70
2022-08-17T17:13:20.029Z,21.70
2022-08-17T17:15:58.759Z,21.70
2022-08-17T17:18:37.377Z,21.50
2022-08-17T17:21:06.964Z,21.50
2022-08-17T17:23:44.353Z,21.50
2022-08-17T17:26:29.121Z,21.70
2022-08-17T17:29:06.409Z,21.60
2022-08-17T17:31:42.416Z,21.60
2022-08-17T17:34:15.860Z,21.70
2022-08-17T17:36:51.552Z,21.60
2022-08-17T17:39:23.673Z,21.70
2022-08-17T17:41:56.207Z,21.80
2022-08-17T17:44:30.096Z,21.80
2022-08-17T17:47:02.508Z,21.60
2022-08-17T17:49:35.613Z,21.90
2022-08-17T17:52:14.323Z,21.70
2022-08-17T17:54:58.330Z,21.60
2022-08-17T17:57:38.693Z,21.60
2022-08-17T18:00:14.116Z,21.60
2022-08-17T18:03:01.658Z,21.60
2022-08-17T18:05:44.617Z,21.60
2022-08-17T18:08:31.033Z,21.60
2022-08-17T18:11:16.109Z,21.50
2022-08-17T18:14:07.597Z,21.60
2022-08-17T18:16:35.879Z,21.60
2022-08-17T18:19:06.803Z,21.50
2022-08-17T18:21:38.922Z,21.50
2022-08-17T18:24:12.626Z,21.50
2022-08-17T18:26:50.836Z,21.50
2022-08-17T18:29:45.664Z,21.50
2022-08-17T18:32:23.668Z,21.60
2022-08-17T18:34:55.516Z,21.60
2022-08-17T18:37:45.113Z,21.40
2022-08-17T18:40:36.401Z,21.50
2022-08-17T18:43:26.601Z,21.50
2022-08-17T18:45:57.579Z,21.50
2022-08-17T18:48:33.295Z,21.40
2022-08-17T18:51:39.889Z,21.40
2022-08-17T18:54:21.255Z,21.40
2022-08-17T18:56:57.084Z,21.40
2022-08-17T18:59:34.359Z,21.20
2022-08-17T19:02:37.334Z,21.30
2022-08-17T19:05:14.661Z,21.30
2022-08-17T19:07:46.354Z,21.30
2022-08-17T19:10:25.371Z,21.30
2022-08-17T19:13:00.692Z,21.30
2022-08-17T19:15:37.095Z,21.20
2022-08-17T19:18:15.244Z,21.20
2022-08-17T19:20:50.721Z,21.20
2022-08-17T19:23:29.065Z,21.20
2022-08-17T19:26:01.734Z,21.20
2022-08-17T19:28:37.920Z,21.30
2022-08-17T19:31:17.385Z,21.20
2022-08-17T19:33:48.123Z,21.20
2022-08-17T19:36:32.991Z,21.20
2022-08-17T19:39:20.547Z,21.10
2022-08-17T19:41:56.296Z,21.00
2022-08-17T19:44:47.255Z,21.10
2022-08-17T19:47:43.777Z,21.20
2022-08-17T19:50:22.281Z,21.00
2022-08-17T19:53:07.535Z,21.10
2022-08-17T19:55:47.716Z,21.00
2022-08-17T19:58:33.425Z,21.00
2022-08-17T20:01:02.507Z,20.90
2022-08-17T20:03:38.006Z,21.00
2022-08-17T20:06:13.544Z,20.90
2022-08-17T20:08:54.817Z,20.80
2022-08-17T20:11:29.713Z,20.80
2022-08-17T20:14:04.806Z,20.80
2022-08-17T20:16:34.823Z,20.70
2022-08-17T20:19:09.743Z,20.80
2022-08-17T20:21:44.760Z,20.70
2022-08-17T20:24:22.881Z,20.80
2022-08-17T20:26:58.568Z,20.90
2022-08-17T20:30:02.542Z,20.90
2022-08-17T20:32:35.298Z,21.00
2022-08-17T20:35:10.637Z,20.90
2022-08-17T20:37:44.312Z,20.90
2022-08-17T20:40:21.467Z,20.90
2022-08-17T20:42:51.131Z,20.90
2022-08-17T20:45:46.584Z,20.90
2022-08-17T20:48:37.628Z,20.90
2022-08-17T20:51:28.515Z,20.80
2022-08-17T20:54:35.123Z,20.90
2022-08-17T20:57:09.231Z,21.00
2022-08-17T21:00:14.684Z,21.00
2022-08-17T21:02:44.905Z,21.00
2022-08-17T21:05:38.335Z,21.10
2022-08-17T21:08:15.477Z,21.10
2022-08-17T21:10:47.068Z,21.20
2022-08-17T21:13:48.594Z,21.00
2022-08-17T21:16:49.064Z,21.00
2022-08-17T21:19:31.158Z,20.80
2022-08-17T21:22:09.837Z,20.90
2022-08-17T21:24:49.966Z,20.80
2022-08-17T21:27:30.125Z,20.80
2022-08-17T21:30:21.872Z,20.70
2022-08-17T21:33:25.445Z,20.70
2022-08-17T21:36:17.252Z,20.60
2022-08-17T21:38:57.955Z,20.50
2022-08-17T21:41:29.481Z,20.50
2022-08-17T21:44:07.237Z,20.50
2022-08-17T21:46:40.165Z,20.50
2022-08-17T21:49:13.964Z,20.60
2022-08-17T21:51:49.946Z,20.50
2022-08-17T21:54:30.872Z,20.50
2022-08-17T21:57:01.299Z,20.40
2022-08-17T21:59:32.941Z,20.20
2022-08-17T22:02:03.227Z,20.30
2022-08-17T22:04:34.878Z,20.30
2022-08-17T22:07:05.230Z,20.20
2022-08-17T22:09:35.784Z,20.20
2022-08-17T22:12:07.981Z,20.20
2022-08-17T22:14:53.065Z,20.20
2022-08-17T22:17:23.990Z,20.20
2022-08-17T22:19:57.408Z,20.20
2022-08-17T22:22:31.384Z,20.20
2022-08-17T22:25:03.107Z,20.20
2022-08-17T22:27:55.514Z,20.20
2022-08-17T22:30:34.495Z,20.40
2022-08-17T22:33:18.754Z,20.20
2022-08-17T22:35:48.466Z,20.20
2022-08-17T22:38:33.815Z,20.20
2022-08-17T22:41:22.005Z,20.40
2022-08-17T22:43:50.748Z,20.30
2022-08-17T22:46:22.179Z,20.20
2022-08-17T22:48:52.817Z,20.40
2022-08-17T22:51:24.729Z,20.30
2022-08-17T22:54:12.196Z,20.30
2022-08-17T22:57:06.947Z,20.20
2022-08-17T22:59:43.661Z,20.20
2022-08-17T23:02:24.697Z,20.20
2022-08-17T23:04:55.639Z,20.20
2022-08-17T23:07:25.639Z,20.20
2022-08-17T23:09:55.132Z,20.20
2022-08-17T23:12:27.478Z,20.10
2022-08-17T23:15:01.686Z,20.10
2022-08-17T23:17:36.877Z,20.20
2022-08-17T23:20:08.588Z,20.20
2022-08-17T23:22:52.131Z,20.20
2022-08-17T23:25:26.419Z,20.30
2022-08-17T23:27:54.588Z,20.30
2022-08-17T23:30:31.186Z,20.40
2022-08-17T23:33:01.336Z,20.40
2022-08-17T23:35:40.052Z,20.40
2022-08-17T23:38:14.621Z,20.40
2022-08-17T23:40:42.829Z,20.50
2022-08-17T23:43:24.877Z,20.50
2022-08-17T23:45:55.103Z,20.40
2022-08-17T23:48:32.666Z,20.50
2022-08-17T23:51:09.131Z,20.60
2022-08-17T23:53:44.205Z,20.60
2022-08-17T23:56:12.647Z,20.70
2022-08-17T23:58:43.263Z,20.70
